sensor_id;sensor_type;location;lat;lon;timestamp;P1;durP1;ratioP1;P2;durP2;ratioP2
4650;SDS011;2338;49.602;8.722;2024-02-28T00:01:28;21.67;;;15.27;;
4650;SDS011;2338;49.602;8.722;2024-02-28T00:04:13;21.33;;;15.00;;
4650;SDS011;2338;49.602;8.722;2024-02-28T00:06:59;20.05;;;14.40;;
4650;SDS011;2338;49.602;8.722;2024-02-28T00:09:45;24.52;;;16.85;;
4650;SDS011;2338;49.602;8.722;2024-02-28T00:12:31;21.73;;;16.10;;
4650;SDS011;2338;49.602;8.722;2024-02-28T00:15:17;21.67;;;14.73;;
4650;SDS011;2338;49.602;8.722;2024-02-28T00:18:04;25.15;;;16.27;;
4650;SDS011;2338;49.602;8.722;2024-02-28T00:20:50;20.95;;;15.63;;
4650;SDS011;2338;49.602;8.722;2024-02-28T00:23:38;20.93;;;13.80;;
4650;SDS011;2338;49.602;8.722;2024-02-28T00:26:23;21.43;;;15.77;;
4650;SDS011;2338;49.602;8.722;2024-02-28T00:29:09;20.88;;;14.90;;
4650;SDS011;2338;49.602;8.722;2024-02-28T00:31:54;22.33;;;16.98;;
4650;SDS011;2338;49.602;8.722;2024-02-28T00:34:42;20.67;;;14.35;;
4650;SDS011;2338;49.602;8.722;2024-02-28T00:37:28;23.00;;;16.15;;
4650;SDS011;2338;49.602;8.722;2024-02-28T00:40:13;22.23;;;15.00;;
4650;SDS011;2338;49.602;8.722;2024-02-28T00:42:59;22.27;;;15.02;;
4650;SDS011;2338;49.602;8.722;2024-02-28T00:45:45;25.00;;;16.33;;
4650;SDS011;2338;49.602;8.722;2024-02-28T00:48:31;21.15;;;15.25;;
4650;SDS011;2338;49.602;8.722;2024-02-28T00:51:18;23.00;;;15.05;;
4650;SDS011;2338;49.602;8.722;2024-02-28T00:54:03;18.35;;;13.68;;
4650;SDS011;2338;49.602;8.722;2024-02-28T00:56:49;25.00;;;15.07;;
4650;SDS011;2338;49.602;8.722;2024-02-28T00:59:34;21.00;;;15.82;;
4650;SDS011;2338;49.602;8.722;2024-02-28T01:02:20;21.85;;;15.00;;
4650;SDS011;2338;49.602;8.722;2024-02-28T01:05:06;20.60;;;15.93;;
4650;SDS011;2338;49.602;8.722;2024-02-28T01:07:54;22.00;;;15.43;;
4650;SDS011;2338;49.602;8.722;2024-02-28T01:10:40;22.40;;;13.75;;
4650;SDS011;2338;49.602;8.722;2024-02-28T01:13:26;19.40;;;15.00;;
4650;SDS011;2338;49.602;8.722;2024-02-28T01:16:13;22.27;;;14.85;;
4650;SDS011;2338;49.602;8.722;2024-02-28T01:18:59;24.05;;;15.10;;
4650;SDS011;2338;49.602;8.722;2024-02-28T01:21:46;21.20;;;16.05;;
4650;SDS011;2338;49.602;8.722;2024-02-28T01:24:33;22.05;;;16.00;;
4650;SDS011;2338;49.602;8.722;2024-02-28T01:27:20;23.52;;;16.20;;
4650;SDS011;2338;49.602;8.722;2024-02-28T01:30:06;21.75;;;14.35;;
4650;SDS011;2338;49.602;8.722;2024-02-28T01:32:52;22.00;;;14.90;;
4650;SDS011;2338;49.602;8.722;2024-02-28T01:35:38;21.60;;;15.55;;
4650;SDS011;2338;49.602;8.722;2024-02-28T01:38:23;21.65;;;15.68;;
4650;SDS011;2338;49.602;8.722;2024-02-28T01:41:11;21.92;;;14.85;;
4650;SDS011;2338;49.602;8.722;2024-02-28T01:43:57;21.90;;;15.10;;
4650;SDS011;2338;49.602;8.722;2024-02-28T01:46:43;22.52;;;15.05;;
4650;SDS011;2338;49.602;8.722;2024-02-28T01:49:29;21.17;;;14.98;;
4650;SDS011;2338;49.602;8.722;2024-02-28T01:52:15;22.42;;;15.23;;
4650;SDS011;2338;49.602;8.722;2024-02-28T01:55:01;21.48;;;15.73;;
4650;SDS011;2338;49.602;8.722;2024-02-28T01:57:48;27.52;;;16.27;;
4650;SDS011;2338;49.602;8.722;2024-02-28T02:00:34;21.80;;;16.15;;
4650;SDS011;2338;49.602;8.722;2024-02-28T02:03:21;21.27;;;13.70;;
4650;SDS011;2338;49.602;8.722;2024-02-28T02:06:06;24.73;;;15.85;;
4650;SDS011;2338;49.602;8.722;2024-02-28T02:08:52;22.00;;;15.38;;
4650;SDS011;2338;49.602;8.722;2024-02-28T02:11:38;24.52;;;15.70;;
4650;SDS011;2338;49.602;8.722;2024-02-28T02:14:25;19.63;;;14.43;;
4650;SDS011;2338;49.602;8.722;2024-02-28T02:17:11;22.33;;;15.70;;
4650;SDS011;2338;49.602;8.722;2024-02-28T02:19:56;22.38;;;15.95;;
4650;SDS011;2338;49.602;8.722;2024-02-28T02:22:43;22.15;;;15.57;;
4650;SDS011;2338;49.602;8.722;2024-02-28T02:25:29;23.80;;;16.10;;
4650;SDS011;2338;49.602;8.722;2024-02-28T02:28:15;21.90;;;16.50;;
4650;SDS011;2338;49.602;8.722;2024-02-28T02:31:01;21.48;;;14.80;;
4650;SDS011;2338;49.602;8.722;2024-02-28T02:33:47;21.52;;;14.32;;
4650;SDS011;2338;49.602;8.722;2024-02-28T02:36:32;20.65;;;14.90;;
4650;SDS011;2338;49.602;8.722;2024-02-28T02:39:20;28.70;;;17.77;;
4650;SDS011;2338;49.602;8.722;2024-02-28T02:42:05;24.85;;;14.90;;
4650;SDS011;2338;49.602;8.722;2024-02-28T02:44:51;21.13;;;14.75;;
4650;SDS011;2338;49.602;8.722;2024-02-28T02:47:37;21.88;;;15.88;;
4650;SDS011;2338;49.602;8.722;2024-02-28T02:50:23;25.95;;;15.82;;
4650;SDS011;2338;49.602;8.722;2024-02-28T02:53:09;22.92;;;15.55;;
4650;SDS011;2338;49.602;8.722;2024-02-28T02:55:57;21.40;;;15.25;;
4650;SDS011;2338;49.602;8.722;2024-02-28T02:58:42;21.27;;;15.40;;
4650;SDS011;2338;49.602;8.722;2024-02-28T03:01:28;23.90;;;15.20;;
4650;SDS011;2338;49.602;8.722;2024-02-28T03:04:14;20.70;;;15.32;;
4650;SDS011;2338;49.602;8.722;2024-02-28T03:06:59;23.58;;;15.25;;
4650;SDS011;2338;49.602;8.722;2024-02-28T03:09:45;21.83;;;15.27;;
4650;SDS011;2338;49.602;8.722;2024-02-28T03:12:32;25.08;;;16.35;;
4650;SDS011;2338;49.602;8.722;2024-02-28T03:15:17;25.20;;;17.02;;
4650;SDS011;2338;49.602;8.722;2024-02-28T03:18:03;26.40;;;17.67;;
4650;SDS011;2338;49.602;8.722;2024-02-28T03:20:49;26.50;;;18.15;;
4650;SDS011;2338;49.602;8.722;2024-02-28T03:23:35;25.10;;;17.40;;
4650;SDS011;2338;49.602;8.722;2024-02-28T03:26:21;23.65;;;17.25;;
4650;SDS011;2338;49.602;8.722;2024-02-28T03:29:08;25.85;;;16.95;;
4650;SDS011;2338;49.602;8.722;2024-02-28T03:31:53;26.42;;;16.77;;
4650;SDS011;2338;49.602;8.722;2024-02-28T03:34:39;25.38;;;16.17;;
4650;SDS011;2338;49.602;8.722;2024-02-28T03:37:24;22.73;;;16.20;;
4650;SDS011;2338;49.602;8.722;2024-02-28T03:40:10;23.67;;;16.58;;
4650;SDS011;2338;49.602;8.722;2024-02-28T03:42:58;23.40;;;15.65;;
4650;SDS011;2338;49.602;8.722;2024-02-28T03:45:45;23.33;;;16.15;;
4650;SDS011;2338;49.602;8.722;2024-02-28T03:48:30;24.00;;;16.52;;
4650;SDS011;2338;49.602;8.722;2024-02-28T03:51:16;22.33;;;16.15;;
4650;SDS011;2338;49.602;8.722;2024-02-28T03:54:02;22.40;;;15.52;;
4650;SDS011;2338;49.602;8.722;2024-02-28T03:56:47;27.85;;;17.33;;
4650;SDS011;2338;49.602;8.722;2024-02-28T03:59:33;21.05;;;15.25;;
4650;SDS011;2338;49.602;8.722;2024-02-28T04:02:20;30.90;;;19.05;;
4650;SDS011;2338;49.602;8.722;2024-02-28T04:05:06;33.13;;;17.80;;
4650;SDS011;2338;49.602;8.722;2024-02-28T04:07:52;24.30;;;17.50;;
4650;SDS011;2338;49.602;8.722;2024-02-28T04:10:38;26.27;;;16.80;;
4650;SDS011;2338;49.602;8.722;2024-02-28T04:13:23;25.67;;;16.98;;
4650;SDS011;2338;49.602;8.722;2024-02-28T04:16:09;24.73;;;15.80;;
4650;SDS011;2338;49.602;8.722;2024-02-28T04:18:56;25.92;;;17.98;;
4650;SDS011;2338;49.602;8.722;2024-02-28T04:21:42;28.92;;;16.75;;
4650;SDS011;2338;49.602;8.722;2024-02-28T04:24:28;22.65;;;16.25;;
4650;SDS011;2338;49.602;8.722;2024-02-28T04:27:13;21.52;;;15.50;;
4650;SDS011;2338;49.602;8.722;2024-02-28T04:29:59;22.85;;;15.32;;
4650;SDS011;2338;49.602;8.722;2024-02-28T04:32:45;23.35;;;16.70;;
4650;SDS011;2338;49.602;8.722;2024-02-28T04:35:32;25.63;;;16.85;;
4650;SDS011;2338;49.602;8.722;2024-02-28T04:38:18;24.38;;;17.15;;
4650;SDS011;2338;49.602;8.722;2024-02-28T04:41:03;25.45;;;15.50;;
4650;SDS011;2338;49.602;8.722;2024-02-28T04:43:49;26.88;;;16.63;;
4650;SDS011;2338;49.602;8.722;2024-02-28T04:46:35;26.05;;;17.00;;
4650;SDS011;2338;49.602;8.722;2024-02-28T04:49:22;25.70;;;17.50;;
4650;SDS011;2338;49.602;8.722;2024-02-28T04:52:09;28.00;;;18.50;;
4650;SDS011;2338;49.602;8.722;2024-02-28T04:54:54;24.50;;;15.60;;
4650;SDS011;2338;49.602;8.722;2024-02-28T04:57:40;25.45;;;18.02;;
4650;SDS011;2338;49.602;8.722;2024-02-28T05:00:26;26.88;;;17.55;;
4650;SDS011;2338;49.602;8.722;2024-02-28T05:03:11;30.17;;;18.75;;
4650;SDS011;2338;49.602;8.722;2024-02-28T05:05:57;29.65;;;19.00;;
4650;SDS011;2338;49.602;8.722;2024-02-28T05:08:44;26.92;;;17.65;;
4650;SDS011;2338;49.602;8.722;2024-02-28T05:11:30;26.80;;;18.10;;
4650;SDS011;2338;49.602;8.722;2024-02-28T05:14:15;27.63;;;19.15;;
4650;SDS011;2338;49.602;8.722;2024-02-28T05:17:01;23.15;;;16.95;;
4650;SDS011;2338;49.602;8.722;2024-02-28T05:19:47;27.73;;;18.38;;
4650;SDS011;2338;49.602;8.722;2024-02-28T05:22:32;23.27;;;16.38;;
4650;SDS011;2338;49.602;8.722;2024-02-28T05:25:19;25.33;;;17.92;;
4650;SDS011;2338;49.602;8.722;2024-02-28T05:28:05;24.63;;;17.33;;
4650;SDS011;2338;49.602;8.722;2024-02-28T05:30:51;26.15;;;18.45;;
4650;SDS011;2338;49.602;8.722;2024-02-28T05:33:36;27.55;;;18.38;;
4650;SDS011;2338;49.602;8.722;2024-02-28T05:36:22;23.50;;;17.08;;
4650;SDS011;2338;49.602;8.722;2024-02-28T05:39:09;27.83;;;17.90;;
4650;SDS011;2338;49.602;8.722;2024-02-28T05:41:56;26.98;;;17.50;;
4650;SDS011;2338;49.602;8.722;2024-02-28T05:44:42;28.17;;;18.75;;
4650;SDS011;2338;49.602;8.722;2024-02-28T05:47:27;25.95;;;17.55;;
4650;SDS011;2338;49.602;8.722;2024-02-28T05:50:13;25.50;;;18.48;;
4650;SDS011;2338;49.602;8.722;2024-02-28T05:52:59;27.55;;;17.85;;
4650;SDS011;2338;49.602;8.722;2024-02-28T05:55:45;28.48;;;17.85;;
4650;SDS011;2338;49.602;8.722;2024-02-28T05:58:32;28.25;;;18.48;;
4650;SDS011;2338;49.602;8.722;2024-02-28T06:01:18;29.45;;;17.25;;
4650;SDS011;2338;49.602;8.722;2024-02-28T06:04:03;30.85;;;18.58;;
4650;SDS011;2338;49.602;8.722;2024-02-28T06:06:49;30.20;;;20.48;;
4650;SDS011;2338;49.602;8.722;2024-02-28T06:09:35;34.75;;;21.90;;
4650;SDS011;2338;49.602;8.722;2024-02-28T06:12:22;31.35;;;20.75;;
4650;SDS011;2338;49.602;8.722;2024-02-28T06:15:09;34.75;;;22.67;;
4650;SDS011;2338;49.602;8.722;2024-02-28T06:17:56;37.92;;;23.17;;
4650;SDS011;2338;49.602;8.722;2024-02-28T06:20:42;45.75;;;25.20;;
4650;SDS011;2338;49.602;8.722;2024-02-28T06:23:27;39.15;;;21.88;;
4650;SDS011;2338;49.602;8.722;2024-02-28T06:26:13;34.53;;;23.67;;
4650;SDS011;2338;49.602;8.722;2024-02-28T06:29:00;32.25;;;22.95;;
4650;SDS011;2338;49.602;8.722;2024-02-28T06:31:51;37.22;;;21.70;;
4650;SDS011;2338;49.602;8.722;2024-02-28T06:34:37;31.88;;;20.77;;
4650;SDS011;2338;49.602;8.722;2024-02-28T06:37:22;35.63;;;21.27;;
4650;SDS011;2338;49.602;8.722;2024-02-28T06:40:08;39.03;;;23.30;;
4650;SDS011;2338;49.602;8.722;2024-02-28T06:42:54;36.63;;;23.40;;
4650;SDS011;2338;49.602;8.722;2024-02-28T06:45:40;44.05;;;24.40;;
4650;SDS011;2338;49.602;8.722;2024-02-28T06:48:27;42.90;;;25.77;;
4650;SDS011;2338;49.602;8.722;2024-02-28T06:51:13;40.35;;;24.33;;
4650;SDS011;2338;49.602;8.722;2024-02-28T06:54:01;41.78;;;25.35;;
4650;SDS011;2338;49.602;8.722;2024-02-28T06:56:47;46.42;;;26.50;;
4650;SDS011;2338;49.602;8.722;2024-02-28T06:59:32;45.80;;;26.95;;
4650;SDS011;2338;49.602;8.722;2024-02-28T07:02:18;46.35;;;26.05;;
4650;SDS011;2338;49.602;8.722;2024-02-28T07:05:05;42.97;;;24.70;;
4650;SDS011;2338;49.602;8.722;2024-02-28T07:07:51;47.05;;;26.15;;
4650;SDS011;2338;49.602;8.722;2024-02-28T07:10:37;52.78;;;27.52;;
4650;SDS011;2338;49.602;8.722;2024-02-28T07:13:27;45.38;;;27.15;;
4650;SDS011;2338;49.602;8.722;2024-02-28T07:16:12;43.72;;;25.77;;
4650;SDS011;2338;49.602;8.722;2024-02-28T07:18:58;44.95;;;25.55;;
4650;SDS011;2338;49.602;8.722;2024-02-28T07:21:46;39.17;;;24.95;;
4650;SDS011;2338;49.602;8.722;2024-02-28T07:24:31;43.53;;;26.00;;
4650;SDS011;2338;49.602;8.722;2024-02-28T07:27:17;49.90;;;27.85;;
4650;SDS011;2338;49.602;8.722;2024-02-28T07:30:03;47.95;;;27.02;;
4650;SDS011;2338;49.602;8.722;2024-02-28T07:32:50;48.97;;;28.10;;
4650;SDS011;2338;49.602;8.722;2024-02-28T07:35:43;50.45;;;28.15;;
4650;SDS011;2338;49.602;8.722;2024-02-28T07:38:31;41.70;;;26.30;;
4650;SDS011;2338;49.602;8.722;2024-02-28T07:41:16;52.55;;;28.25;;
4650;SDS011;2338;49.602;8.722;2024-02-28T07:44:02;55.67;;;28.75;;
4650;SDS011;2338;49.602;8.722;2024-02-28T07:46:48;50.53;;;28.17;;
4650;SDS011;2338;49.602;8.722;2024-02-28T07:49:35;46.72;;;27.80;;
4650;SDS011;2338;49.602;8.722;2024-02-28T07:52:20;53.55;;;29.77;;
4650;SDS011;2338;49.602;8.722;2024-02-28T07:55:08;48.00;;;26.52;;
4650;SDS011;2338;49.602;8.722;2024-02-28T07:57:54;49.67;;;25.55;;
4650;SDS011;2338;49.602;8.722;2024-02-28T08:00:39;49.90;;;28.42;;
4650;SDS011;2338;49.602;8.722;2024-02-28T08:03:27;49.83;;;29.33;;
4650;SDS011;2338;49.602;8.722;2024-02-28T08:06:12;49.05;;;27.02;;
4650;SDS011;2338;49.602;8.722;2024-02-28T08:09:00;46.95;;;28.77;;
4650;SDS011;2338;49.602;8.722;2024-02-28T08:11:49;40.08;;;23.35;;
4650;SDS011;2338;49.602;8.722;2024-02-28T08:14:34;41.30;;;25.63;;
4650;SDS011;2338;49.602;8.722;2024-02-28T08:17:20;44.50;;;25.60;;
4650;SDS011;2338;49.602;8.722;2024-02-28T08:20:06;40.53;;;25.35;;
4650;SDS011;2338;49.602;8.722;2024-02-28T08:22:52;40.25;;;22.00;;
4650;SDS011;2338;49.602;8.722;2024-02-28T08:25:41;33.08;;;22.55;;
4650;SDS011;2338;49.602;8.722;2024-02-28T08:28:28;36.58;;;23.45;;
4650;SDS011;2338;49.602;8.722;2024-02-28T08:31:14;39.60;;;23.90;;
4650;SDS011;2338;49.602;8.722;2024-02-28T08:33:59;39.70;;;22.73;;
4650;SDS011;2338;49.602;8.722;2024-02-28T08:36:48;35.00;;;22.03;;
4650;SDS011;2338;49.602;8.722;2024-02-28T08:39:33;37.10;;;22.33;;
4650;SDS011;2338;49.602;8.722;2024-02-28T08:42:19;38.00;;;23.10;;
4650;SDS011;2338;49.602;8.722;2024-02-28T08:45:07;37.63;;;23.80;;
4650;SDS011;2338;49.602;8.722;2024-02-28T08:47:53;36.95;;;23.98;;
4650;SDS011;2338;49.602;8.722;2024-02-28T08:50:41;36.60;;;23.37;;
4650;SDS011;2338;49.602;8.722;2024-02-28T08:53:27;46.70;;;26.02;;
4650;SDS011;2338;49.602;8.722;2024-02-28T08:56:12;41.67;;;26.23;;
4650;SDS011;2338;49.602;8.722;2024-02-28T08:58:58;45.88;;;27.90;;
4650;SDS011;2338;49.602;8.722;2024-02-28T09:01:45;44.65;;;25.95;;
4650;SDS011;2338;49.602;8.722;2024-02-28T09:04:31;46.45;;;28.42;;
4650;SDS011;2338;49.602;8.722;2024-02-28T09:07:17;38.10;;;24.70;;
4650;SDS011;2338;49.602;8.722;2024-02-28T09:10:03;43.27;;;25.33;;
4650;SDS011;2338;49.602;8.722;2024-02-28T09:12:49;38.70;;;23.57;;
4650;SDS011;2338;49.602;8.722;2024-02-28T09:15:35;41.17;;;25.70;;
4650;SDS011;2338;49.602;8.722;2024-02-28T09:18:22;45.97;;;27.45;;
4650;SDS011;2338;49.602;8.722;2024-02-28T09:21:08;46.35;;;26.80;;
4650;SDS011;2338;49.602;8.722;2024-02-28T09:23:54;42.20;;;26.13;;
4650;SDS011;2338;49.602;8.722;2024-02-28T09:26:39;45.33;;;27.40;;
4650;SDS011;2338;49.602;8.722;2024-02-28T09:29:25;45.80;;;27.93;;
4650;SDS011;2338;49.602;8.722;2024-02-28T09:32:11;49.23;;;29.10;;
4650;SDS011;2338;49.602;8.722;2024-02-28T09:34:59;46.40;;;27.03;;
4650;SDS011;2338;49.602;8.722;2024-02-28T09:37:45;45.93;;;28.00;;
4650;SDS011;2338;49.602;8.722;2024-02-28T09:40:31;46.47;;;27.30;;
4650;SDS011;2338;49.602;8.722;2024-02-28T09:43:19;44.70;;;27.15;;
4650;SDS011;2338;49.602;8.722;2024-02-28T09:46:10;45.43;;;28.40;;
4650;SDS011;2338;49.602;8.722;2024-02-28T09:48:56;42.37;;;26.17;;
4650;SDS011;2338;49.602;8.722;2024-02-28T09:51:45;38.93;;;25.47;;
4650;SDS011;2338;49.602;8.722;2024-02-28T09:54:34;47.10;;;26.40;;
4650;SDS011;2338;49.602;8.722;2024-02-28T09:57:20;39.97;;;25.73;;
4650;SDS011;2338;49.602;8.722;2024-02-28T10:00:12;39.20;;;24.23;;
4650;SDS011;2338;49.602;8.722;2024-02-28T10:02:59;44.60;;;25.80;;
4650;SDS011;2338;49.602;8.722;2024-02-28T10:05:46;37.23;;;24.60;;
4650;SDS011;2338;49.602;8.722;2024-02-28T10:08:33;38.17;;;23.50;;
4650;SDS011;2338;49.602;8.722;2024-02-28T10:11:20;39.93;;;25.53;;
4650;SDS011;2338;49.602;8.722;2024-02-28T10:14:06;37.30;;;22.73;;
4650;SDS011;2338;49.602;8.722;2024-02-28T10:16:52;37.90;;;23.27;;
4650;SDS011;2338;49.602;8.722;2024-02-28T10:19:38;37.80;;;24.30;;
4650;SDS011;2338;49.602;8.722;2024-02-28T10:22:24;41.17;;;24.07;;
4650;SDS011;2338;49.602;8.722;2024-02-28T10:25:11;37.00;;;23.60;;
4650;SDS011;2338;49.602;8.722;2024-02-28T10:27:59;35.93;;;23.13;;
4650;SDS011;2338;49.602;8.722;2024-02-28T10:30:46;33.83;;;20.37;;
4650;SDS011;2338;49.602;8.722;2024-02-28T10:33:31;34.77;;;22.33;;
4650;SDS011;2338;49.602;8.722;2024-02-28T10:36:19;31.77;;;21.77;;
4650;SDS011;2338;49.602;8.722;2024-02-28T10:39:05;33.70;;;21.63;;
4650;SDS011;2338;49.602;8.722;2024-02-28T10:41:54;31.87;;;20.97;;
4650;SDS011;2338;49.602;8.722;2024-02-28T10:44:42;36.97;;;21.63;;
4650;SDS011;2338;49.602;8.722;2024-02-28T10:47:28;30.93;;;20.00;;
4650;SDS011;2338;49.602;8.722;2024-02-28T10:50:14;34.27;;;21.20;;
4650;SDS011;2338;49.602;8.722;2024-02-28T10:53:01;33.00;;;22.93;;
4650;SDS011;2338;49.602;8.722;2024-02-28T10:55:49;33.73;;;21.53;;
4650;SDS011;2338;49.602;8.722;2024-02-28T10:58:40;31.53;;;20.97;;
4650;SDS011;2338;49.602;8.722;2024-02-28T11:01:35;32.17;;;22.53;;
4650;SDS011;2338;49.602;8.722;2024-02-28T11:04:21;30.23;;;20.80;;
4650;SDS011;2338;49.602;8.722;2024-02-28T11:07:07;29.70;;;20.23;;
4650;SDS011;2338;49.602;8.722;2024-02-28T11:09:53;30.47;;;20.87;;
4650;SDS011;2338;49.602;8.722;2024-02-28T11:12:40;25.73;;;18.00;;
4650;SDS011;2338;49.602;8.722;2024-02-28T11:15:27;25.20;;;17.53;;
4650;SDS011;2338;49.602;8.722;2024-02-28T11:18:13;26.17;;;18.27;;
4650;SDS011;2338;49.602;8.722;2024-02-28T11:20:59;28.40;;;18.60;;
4650;SDS011;2338;49.602;8.722;2024-02-28T11:23:45;26.50;;;17.10;;
4650;SDS011;2338;49.602;8.722;2024-02-28T11:26:32;24.97;;;17.90;;
4650;SDS011;2338;49.602;8.722;2024-02-28T11:29:21;25.20;;;15.53;;
4650;SDS011;2338;49.602;8.722;2024-02-28T11:32:09;21.00;;;15.10;;
4650;SDS011;2338;49.602;8.722;2024-02-28T11:34:56;26.00;;;15.60;;
4650;SDS011;2338;49.602;8.722;2024-02-28T11:37:44;21.77;;;15.70;;
4650;SDS011;2338;49.602;8.722;2024-02-28T11:40:31;21.10;;;14.83;;
4650;SDS011;2338;49.602;8.722;2024-02-28T11:43:16;20.93;;;14.70;;
4650;SDS011;2338;49.602;8.722;2024-02-28T11:46:07;19.10;;;14.07;;
4650;SDS011;2338;49.602;8.722;2024-02-28T11:48:55;22.23;;;13.10;;
4650;SDS011;2338;49.602;8.722;2024-02-28T11:51:41;29.80;;;16.10;;
4650;SDS011;2338;49.602;8.722;2024-02-28T11:54:27;24.00;;;15.40;;
4650;SDS011;2338;49.602;8.722;2024-02-28T11:57:13;24.40;;;16.97;;
4650;SDS011;2338;49.602;8.722;2024-02-28T12:00:04;25.90;;;16.07;;
4650;SDS011;2338;49.602;8.722;2024-02-28T12:02:51;21.70;;;15.00;;
4650;SDS011;2338;49.602;8.722;2024-02-28T12:05:39;19.40;;;14.50;;
4650;SDS011;2338;49.602;8.722;2024-02-28T12:08:27;20.10;;;14.53;;
4650;SDS011;2338;49.602;8.722;2024-02-28T12:11:13;21.83;;;15.23;;
4650;SDS011;2338;49.602;8.722;2024-02-28T12:13:59;26.17;;;15.13;;
4650;SDS011;2338;49.602;8.722;2024-02-28T12:16:47;26.47;;;18.03;;
4650;SDS011;2338;49.602;8.722;2024-02-28T12:19:34;21.30;;;14.90;;
4650;SDS011;2338;49.602;8.722;2024-02-28T12:22:21;19.50;;;13.67;;
4650;SDS011;2338;49.602;8.722;2024-02-28T12:25:07;17.23;;;13.53;;
4650;SDS011;2338;49.602;8.722;2024-02-28T12:27:53;24.50;;;15.27;;
4650;SDS011;2338;49.602;8.722;2024-02-28T12:30:39;18.50;;;12.73;;
4650;SDS011;2338;49.602;8.722;2024-02-28T12:33:26;23.17;;;16.57;;
4650;SDS011;2338;49.602;8.722;2024-02-28T12:36:11;21.33;;;16.00;;
4650;SDS011;2338;49.602;8.722;2024-02-28T12:38:59;26.20;;;17.73;;
4650;SDS011;2338;49.602;8.722;2024-02-28T12:41:45;21.93;;;15.80;;
4650;SDS011;2338;49.602;8.722;2024-02-28T12:44:30;24.80;;;15.93;;
4650;SDS011;2338;49.602;8.722;2024-02-28T12:47:16;21.67;;;15.40;;
4650;SDS011;2338;49.602;8.722;2024-02-28T12:50:02;18.47;;;14.33;;
4650;SDS011;2338;49.602;8.722;2024-02-28T12:52:48;23.40;;;14.40;;
4650;SDS011;2338;49.602;8.722;2024-02-28T12:55:38;18.50;;;14.10;;
4650;SDS011;2338;49.602;8.722;2024-02-28T12:58:24;17.67;;;11.83;;
4650;SDS011;2338;49.602;8.722;2024-02-28T13:01:11;20.30;;;14.50;;
4650;SDS011;2338;49.602;8.722;2024-02-28T13:03:57;22.27;;;16.33;;
4650;SDS011;2338;49.602;8.722;2024-02-28T13:06:43;22.40;;;16.63;;
4650;SDS011;2338;49.602;8.722;2024-02-28T13:09:28;20.53;;;14.53;;
4650;SDS011;2338;49.602;8.722;2024-02-28T13:12:15;28.73;;;17.60;;
4650;SDS011;2338;49.602;8.722;2024-02-28T13:15:04;20.00;;;14.00;;
4650;SDS011;2338;49.602;8.722;2024-02-28T13:17:50;19.80;;;14.33;;
4650;SDS011;2338;49.602;8.722;2024-02-28T13:20:36;19.20;;;14.00;;
4650;SDS011;2338;49.602;8.722;2024-02-28T13:23:23;18.70;;;13.73;;
4650;SDS011;2338;49.602;8.722;2024-02-28T13:26:10;20.63;;;14.20;;
4650;SDS011;2338;49.602;8.722;2024-02-28T13:29:02;20.10;;;13.30;;
4650;SDS011;2338;49.602;8.722;2024-02-28T13:31:48;20.70;;;14.77;;
4650;SDS011;2338;49.602;8.722;2024-02-28T13:34:33;21.43;;;14.23;;
4650;SDS011;2338;49.602;8.722;2024-02-28T13:37:19;18.73;;;12.77;;
4650;SDS011;2338;49.602;8.722;2024-02-28T13:40:05;16.43;;;13.00;;
4650;SDS011;2338;49.602;8.722;2024-02-28T13:42:52;17.40;;;12.40;;
4650;SDS011;2338;49.602;8.722;2024-02-28T13:45:39;17.43;;;11.70;;
4650;SDS011;2338;49.602;8.722;2024-02-28T13:48:26;16.17;;;10.93;;
4650;SDS011;2338;49.602;8.722;2024-02-28T13:51:14;21.27;;;13.73;;
4650;SDS011;2338;49.602;8.722;2024-02-28T13:54:00;15.30;;;11.30;;
4650;SDS011;2338;49.602;8.722;2024-02-28T13:56:46;13.20;;;10.37;;
4650;SDS011;2338;49.602;8.722;2024-02-28T13:59:32;15.73;;;12.03;;
4650;SDS011;2338;49.602;8.722;2024-02-28T14:02:19;12.20;;;8.80;;
4650;SDS011;2338;49.602;8.722;2024-02-28T14:05:05;16.57;;;11.57;;
4650;SDS011;2338;49.602;8.722;2024-02-28T14:07:52;27.63;;;17.20;;
4650;SDS011;2338;49.602;8.722;2024-02-28T14:10:38;14.70;;;10.77;;
4650;SDS011;2338;49.602;8.722;2024-02-28T14:13:24;13.50;;;10.13;;
4650;SDS011;2338;49.602;8.722;2024-02-28T14:16:09;14.40;;;11.00;;
4650;SDS011;2338;49.602;8.722;2024-02-28T14:18:56;16.90;;;11.20;;
4650;SDS011;2338;49.602;8.722;2024-02-28T14:21:42;13.90;;;10.83;;
4650;SDS011;2338;49.602;8.722;2024-02-28T14:24:28;17.00;;;12.50;;
4650;SDS011;2338;49.602;8.722;2024-02-28T14:27:14;16.13;;;12.00;;
4650;SDS011;2338;49.602;8.722;2024-02-28T14:30:00;19.03;;;13.50;;
4650;SDS011;2338;49.602;8.722;2024-02-28T14:32:46;16.47;;;13.30;;
4650;SDS011;2338;49.602;8.722;2024-02-28T14:35:34;17.13;;;11.50;;
4650;SDS011;2338;49.602;8.722;2024-02-28T14:38:23;16.53;;;12.40;;
4650;SDS011;2338;49.602;8.722;2024-02-28T14:41:08;17.30;;;12.20;;
4650;SDS011;2338;49.602;8.722;2024-02-28T14:43:54;17.27;;;12.30;;
4650;SDS011;2338;49.602;8.722;2024-02-28T14:46:39;20.07;;;10.93;;
4650;SDS011;2338;49.602;8.722;2024-02-28T14:49:25;21.53;;;13.93;;
4650;SDS011;2338;49.602;8.722;2024-02-28T14:52:12;16.20;;;11.87;;
4650;SDS011;2338;49.602;8.722;2024-02-28T14:54:58;18.40;;;12.17;;
4650;SDS011;2338;49.602;8.722;2024-02-28T14:57:45;22.03;;;15.17;;
4650;SDS011;2338;49.602;8.722;2024-02-28T15:00:31;23.43;;;14.70;;
4650;SDS011;2338;49.602;8.722;2024-02-28T15:03:17;25.03;;;13.77;;
4650;SDS011;2338;49.602;8.722;2024-02-28T15:06:02;25.80;;;14.33;;
4650;SDS011;2338;49.602;8.722;2024-02-28T15:08:50;18.70;;;12.90;;
4650;SDS011;2338;49.602;8.722;2024-02-28T15:11:35;19.63;;;13.37;;
4650;SDS011;2338;49.602;8.722;2024-02-28T15:14:21;19.70;;;13.37;;
4650;SDS011;2338;49.602;8.722;2024-02-28T15:17:06;17.00;;;12.50;;
4650;SDS011;2338;49.602;8.722;2024-02-28T15:19:52;18.13;;;12.37;;
4650;SDS011;2338;49.602;8.722;2024-02-28T15:22:39;20.87;;;12.63;;
4650;SDS011;2338;49.602;8.722;2024-02-28T15:25:26;20.27;;;12.47;;
4650;SDS011;2338;49.602;8.722;2024-02-28T15:28:12;15.53;;;10.50;;
4650;SDS011;2338;49.602;8.722;2024-02-28T15:30:58;17.70;;;12.07;;
4650;SDS011;2338;49.602;8.722;2024-02-28T15:33:43;16.10;;;10.70;;
4650;SDS011;2338;49.602;8.722;2024-02-28T15:36:29;16.40;;;10.30;;
4650;SDS011;2338;49.602;8.722;2024-02-28T15:39:15;16.20;;;11.70;;
4650;SDS011;2338;49.602;8.722;2024-02-28T15:42:02;13.47;;;9.57;;
4650;SDS011;2338;49.602;8.722;2024-02-28T15:44:47;14.07;;;9.43;;
4650;SDS011;2338;49.602;8.722;2024-02-28T15:47:33;15.33;;;10.53;;
4650;SDS011;2338;49.602;8.722;2024-02-28T15:50:19;13.80;;;10.00;;
4650;SDS011;2338;49.602;8.722;2024-02-28T15:53:05;14.23;;;9.77;;
4650;SDS011;2338;49.602;8.722;2024-02-28T15:55:50;15.67;;;9.90;;
4650;SDS011;2338;49.602;8.722;2024-02-28T15:58:37;15.37;;;10.23;;
4650;SDS011;2338;49.602;8.722;2024-02-28T16:01:26;15.60;;;9.60;;
4650;SDS011;2338;49.602;8.722;2024-02-28T16:04:12;13.93;;;9.53;;
4650;SDS011;2338;49.602;8.722;2024-02-28T16:06:57;12.97;;;9.27;;
4650;SDS011;2338;49.602;8.722;2024-02-28T16:09:44;16.33;;;10.10;;
4650;SDS011;2338;49.602;8.722;2024-02-28T16:12:30;14.67;;;9.40;;
4650;SDS011;2338;49.602;8.722;2024-02-28T16:15:17;12.57;;;9.03;;
4650;SDS011;2338;49.602;8.722;2024-02-28T16:18:03;12.87;;;9.13;;
4650;SDS011;2338;49.602;8.722;2024-02-28T16:20:49;11.90;;;8.50;;
4650;SDS011;2338;49.602;8.722;2024-02-28T16:23:35;13.37;;;9.30;;
4650;SDS011;2338;49.602;8.722;2024-02-28T16:26:21;12.03;;;8.70;;
4650;SDS011;2338;49.602;8.722;2024-02-28T16:29:08;13.50;;;8.00;;
4650;SDS011;2338;49.602;8.722;2024-02-28T16:31:55;16.07;;;8.63;;
4650;SDS011;2338;49.602;8.722;2024-02-28T16:34:41;11.90;;;8.50;;
4650;SDS011;2338;49.602;8.722;2024-02-28T16:37:26;17.80;;;9.03;;
4650;SDS011;2338;49.602;8.722;2024-02-28T16:40:12;13.57;;;9.20;;
4650;SDS011;2338;49.602;8.722;2024-02-28T16:42:58;12.37;;;8.03;;